createdAt,value
2023-01-19T00:01:27.915Z,19.90
2023-01-19T00:03:55.439Z,21.30
2023-01-19T00:06:23.006Z,19.03
2023-01-19T00:08:51.099Z,30.80
2023-01-19T00:11:19.139Z,17.50
2023-01-19T00:13:50.858Z,19.37
2023-01-19T00:16:19.996Z,23.93
2023-01-19T00:18:47.731Z,17.60
2023-01-19T00:21:15.799Z,17.20
2023-01-19T00:23:47.172Z,19.13
2023-01-19T00:26:16.143Z,17.37
2023-01-19T00:28:43.875Z,19.97
2023-01-19T00:31:13.479Z,18.10
2023-01-19T00:33:41.015Z,21.07
2023-01-19T00:36:09.447Z,16.13
2023-01-19T00:38:36.903Z,24.90
2023-01-19T00:41:04.425Z,18.37
2023-01-19T00:43:31.031Z,19.07
2023-01-19T00:45:58.613Z,14.50
2023-01-19T00:48:27.488Z,16.30
2023-01-19T00:50:54.954Z,18.80
2023-01-19T00:53:22.452Z,22.13
2023-01-19T00:55:49.926Z,20.07
2023-01-19T00:58:17.416Z,22.23
2023-01-19T01:00:45.012Z,20.70
2023-01-19T01:03:12.599Z,22.43
2023-01-19T01:05:43.197Z,19.97
2023-01-19T01:08:10.760Z,18.50
2023-01-19T01:10:38.272Z,18.23
2023-01-19T01:13:21.345Z,17.67
2023-01-19T01:15:52.300Z,15.70
2023-01-19T01:18:19.956Z,18.00
2023-01-19T01:20:49.191Z,20.80
2023-01-19T01:23:22.877Z,20.30
2023-01-19T01:25:50.577Z,23.97
2023-01-19T01:28:18.048Z,25.43
2023-01-19T01:30:45.651Z,17.37
2023-01-19T01:33:13.309Z,16.50
2023-01-19T01:35:40.925Z,17.40
2023-01-19T01:38:10.510Z,15.63
2023-01-19T01:40:40.393Z,18.63
2023-01-19T01:43:11.565Z,17.93
2023-01-19T01:45:40.554Z,17.40
2023-01-19T01:48:11.305Z,23.80
2023-01-19T01:51:01.676Z,17.67
2023-01-19T01:53:32.299Z,25.40
2023-01-19T01:56:00.740Z,19.87
2023-01-19T01:58:28.302Z,22.43
2023-01-19T02:01:13.693Z,16.07
2023-01-19T02:03:41.322Z,18.17
2023-01-19T02:06:09.480Z,18.50
2023-01-19T02:08:58.514Z,19.47
2023-01-19T02:11:43.898Z,17.47
2023-01-19T02:14:11.401Z,20.20
2023-01-19T02:16:39.288Z,16.30
2023-01-19T02:19:08.454Z,17.07
2023-01-19T02:21:40.532Z,15.07
2023-01-19T02:24:09.499Z,17.23
2023-01-19T02:26:39.486Z,19.13
2023-01-19T02:29:09.844Z,15.03
2023-01-19T02:31:38.999Z,22.47
2023-01-19T02:34:07.786Z,23.23
2023-01-19T02:36:38.124Z,22.37
2023-01-19T02:39:06.668Z,17.37
2023-01-19T02:41:39.782Z,15.20
2023-01-19T02:44:08.141Z,18.00
2023-01-19T02:46:35.642Z,14.77
2023-01-19T02:49:03.242Z,21.03
2023-01-19T02:51:31.067Z,14.43
2023-01-19T02:54:31.804Z,17.03
2023-01-19T02:57:13.810Z,17.57
2023-01-19T02:59:50.216Z,21.17
2023-01-19T03:02:27.439Z,12.00
2023-01-19T03:05:17.999Z,21.80
2023-01-19T03:07:52.120Z,12.60
2023-01-19T03:10:24.602Z,19.90
2023-01-19T03:12:56.215Z,15.63
2023-01-19T03:15:28.404Z,22.63
2023-01-19T03:17:58.557Z,15.23
2023-01-19T03:20:28.755Z,23.60
2023-01-19T03:23:01.855Z,21.17
2023-01-19T03:25:32.785Z,17.27
2023-01-19T03:28:02.255Z,18.17
2023-01-19T03:30:32.320Z,20.00
2023-01-19T03:33:03.239Z,16.50
2023-01-19T03:35:33.239Z,18.00
2023-01-19T03:38:02.095Z,18.63
2023-01-19T03:40:31.528Z,19.80
2023-01-19T03:43:02.159Z,16.00
2023-01-19T03:45:32.575Z,14.77
2023-01-19T03:48:00.640Z,20.87
2023-01-19T03:50:30.604Z,15.47
2023-01-19T03:53:03.252Z,19.70
2023-01-19T03:55:30.926Z,18.63
2023-01-19T03:57:58.524Z,18.10
2023-01-19T04:00:27.311Z,17.00
2023-01-19T04:02:55.427Z,16.83
2023-01-19T04:05:23.230Z,17.40
2023-01-19T04:07:50.849Z,16.17
2023-01-19T04:10:18.576Z,14.83
2023-01-19T04:12:46.746Z,17.73
2023-01-19T04:15:14.341Z,16.37
2023-01-19T04:17:43.281Z,22.23
2023-01-19T04:20:11.446Z,31.43
2023-01-19T04:22:39.613Z,18.60
2023-01-19T04:25:08.731Z,21.63
2023-01-19T04:27:37.039Z,20.67
2023-01-19T04:30:05.442Z,19.63
2023-01-19T04:32:33.351Z,17.83
2023-01-19T04:35:02.147Z,21.00
2023-01-19T04:37:29.704Z,25.93
2023-01-19T04:39:57.151Z,18.40
2023-01-19T04:42:24.630Z,23.87
2023-01-19T04:44:52.533Z,18.03
2023-01-19T04:47:20.177Z,21.40
2023-01-19T04:49:47.631Z,20.30
2023-01-19T04:52:16.499Z,19.10
2023-01-19T04:54:44.187Z,19.87
2023-01-19T04:57:11.706Z,20.00
2023-01-19T04:59:39.236Z,21.03
2023-01-19T05:02:06.805Z,21.40
2023-01-19T05:04:34.303Z,18.20
2023-01-19T05:07:02.137Z,24.67
2023-01-19T05:09:31.030Z,22.93
2023-01-19T05:11:58.563Z,19.57
2023-01-19T05:14:26.090Z,18.90
2023-01-19T05:16:53.584Z,18.13
2023-01-19T05:19:21.112Z,20.60
2023-01-19T05:21:48.575Z,22.60
2023-01-19T05:24:16.278Z,16.80
2023-01-19T05:26:45.142Z,25.27
2023-01-19T05:29:12.676Z,20.40
2023-01-19T05:31:40.149Z,19.37
2023-01-19T05:34:07.617Z,18.40
2023-01-19T05:36:35.091Z,31.03
2023-01-19T05:39:02.609Z,18.70
2023-01-19T05:41:30.379Z,21.90
2023-01-19T05:43:59.242Z,21.80
2023-01-19T05:46:26.941Z,22.70
2023-01-19T05:48:54.539Z,22.40
2023-01-19T05:51:22.152Z,19.67
2023-01-19T05:53:49.695Z,22.00
2023-01-19T05:56:17.145Z,21.87
2023-01-19T05:58:44.675Z,20.57
2023-01-19T06:01:13.595Z,24.57
2023-01-19T06:03:41.165Z,24.80
2023-01-19T06:06:08.820Z,23.23
2023-01-19T06:08:36.360Z,20.43
2023-01-19T06:11:06.723Z,22.40
2023-01-19T06:13:34.465Z,23.53
2023-01-19T06:16:02.941Z,25.63
2023-01-19T06:18:31.822Z,23.60
2023-01-19T06:20:59.445Z,20.60
2023-01-19T06:23:27.305Z,21.93
2023-01-19T06:25:54.836Z,25.20
2023-01-19T06:28:22.383Z,22.07
2023-01-19T06:30:50.675Z,21.80
2023-01-19T06:33:18.942Z,18.90
2023-01-19T06:35:49.284Z,19.73
2023-01-19T06:38:18.504Z,19.53
2023-01-19T06:40:46.431Z,20.67
2023-01-19T06:43:14.200Z,18.87
2023-01-19T06:45:41.891Z,23.20
2023-01-19T06:48:09.593Z,29.13
2023-01-19T06:50:37.028Z,17.60
2023-01-19T06:53:05.861Z,16.93
2023-01-19T06:55:35.629Z,19.73
2023-01-19T06:58:03.893Z,16.50
2023-01-19T07:00:31.591Z,19.53
2023-01-19T07:02:59.524Z,19.70
2023-01-19T07:05:27.407Z,17.87
2023-01-19T07:07:55.728Z,18.33
2023-01-19T07:10:25.269Z,22.13
2023-01-19T07:12:53.308Z,22.93
2023-01-19T07:15:22.541Z,17.33
2023-01-19T07:17:50.037Z,19.83
2023-01-19T07:20:19.522Z,19.80
2023-01-19T07:22:47.115Z,20.93
2023-01-19T07:25:15.109Z,18.60
2023-01-19T07:27:44.928Z,18.00
2023-01-19T07:30:13.566Z,19.13
2023-01-19T07:32:42.543Z,24.77
2023-01-19T07:35:10.646Z,24.87
2023-01-19T07:37:38.135Z,20.83
2023-01-19T07:40:06.702Z,23.20
2023-01-19T07:42:34.244Z,22.00
2023-01-19T07:45:03.087Z,23.60
2023-01-19T07:47:30.594Z,22.10
2023-01-19T07:49:58.086Z,23.90
2023-01-19T07:52:25.577Z,22.53
2023-01-19T07:54:53.162Z,31.47
2023-01-19T07:57:20.697Z,24.90
2023-01-19T07:59:48.251Z,21.93
2023-01-19T08:02:17.485Z,25.30
2023-01-19T08:04:45.248Z,23.00
2023-01-19T08:07:13.305Z,24.63
2023-01-19T08:09:41.146Z,23.33
2023-01-19T08:12:08.928Z,23.03
2023-01-19T08:14:36.647Z,26.43
2023-01-19T08:17:04.716Z,27.27
2023-01-19T08:19:33.716Z,27.70
2023-01-19T08:22:01.220Z,21.93
2023-01-19T08:24:29.404Z,24.70
2023-01-19T08:27:00.276Z,23.17
2023-01-19T08:29:30.644Z,23.13
2023-01-19T08:31:59.937Z,21.50
2023-01-19T08:34:28.026Z,22.53
2023-01-19T08:36:56.871Z,20.27
2023-01-19T08:39:24.492Z,23.80
2023-01-19T08:41:52.415Z,25.57
2023-01-19T08:44:19.891Z,23.30
2023-01-19T08:46:47.533Z,18.77
2023-01-19T08:49:15.830Z,20.57
2023-01-19T08:51:46.831Z,20.93
2023-01-19T08:54:18.574Z,25.30
2023-01-19T08:56:46.270Z,22.63
2023-01-19T08:59:16.834Z,20.93
2023-01-19T09:01:44.679Z,20.00
2023-01-19T09:04:12.382Z,23.30
2023-01-19T09:06:40.054Z,15.10
2023-01-19T09:09:07.523Z,20.57
2023-01-19T09:11:36.315Z,24.20
2023-01-19T09:14:05.758Z,21.40
2023-01-19T09:16:33.218Z,22.83
2023-01-19T09:19:00.728Z,22.67
2023-01-19T09:21:28.768Z,18.93
2023-01-19T09:23:56.254Z,23.13
2023-01-19T09:26:24.148Z,21.27
2023-01-19T09:28:52.971Z,21.60
2023-01-19T09:31:20.517Z,25.20
2023-01-19T09:33:48.057Z,25.33
2023-01-19T09:36:15.701Z,26.70
2023-01-19T09:38:43.571Z,21.00
2023-01-19T09:41:18.382Z,22.60
2023-01-19T09:43:48.452Z,24.90
2023-01-19T09:46:21.013Z,24.60
2023-01-19T09:48:49.747Z,29.07
2023-01-19T09:51:20.286Z,26.43
2023-01-19T09:53:53.214Z,25.83
2023-01-19T09:56:21.745Z,28.40
2023-01-19T09:58:50.908Z,26.67
2023-01-19T10:01:34.622Z,27.30
2023-01-19T10:04:30.517Z,25.90
2023-01-19T10:07:07.859Z,25.07
2023-01-19T10:09:40.153Z,27.63
2023-01-19T10:12:12.468Z,24.73
2023-01-19T10:14:44.145Z,23.23
2023-01-19T10:17:22.043Z,25.00
2023-01-19T10:19:52.639Z,23.33
2023-01-19T10:22:22.083Z,22.30
2023-01-19T10:24:52.349Z,26.23
2023-01-19T10:27:22.847Z,26.80
2023-01-19T10:29:50.541Z,21.10
2023-01-19T10:32:22.294Z,21.73
2023-01-19T10:34:51.033Z,21.70
2023-01-19T10:37:26.696Z,20.87
2023-01-19T10:39:56.089Z,24.70
2023-01-19T10:42:23.604Z,29.67
2023-01-19T10:44:51.404Z,22.43
2023-01-19T10:47:22.795Z,20.30
2023-01-19T10:49:50.453Z,20.50
2023-01-19T10:52:23.264Z,30.87
2023-01-19T10:54:50.821Z,26.03
2023-01-19T10:57:26.885Z,20.33
2023-01-19T10:59:54.475Z,17.97
2023-01-19T11:02:26.714Z,19.90
2023-01-19T11:04:56.111Z,23.30
2023-01-19T11:07:25.100Z,18.53
2023-01-19T11:10:13.575Z,21.30
2023-01-19T11:12:41.753Z,16.20
2023-01-19T11:15:15.520Z,17.57
2023-01-19T11:17:46.334Z,25.47
2023-01-19T11:20:20.630Z,22.93
2023-01-19T11:22:49.007Z,19.57
2023-01-19T11:25:31.700Z,19.03
2023-01-19T11:27:59.301Z,22.83
2023-01-19T11:30:27.765Z,18.53
2023-01-19T11:32:57.163Z,24.43
2023-01-19T11:35:39.177Z,19.47
2023-01-19T11:38:09.111Z,18.63
2023-01-19T11:40:36.699Z,20.07
2023-01-19T11:43:04.251Z,18.47
2023-01-19T11:45:32.919Z,16.27
2023-01-19T11:48:04.598Z,19.23
2023-01-19T11:50:34.686Z,20.63
2023-01-19T11:53:07.270Z,19.63
2023-01-19T11:55:37.989Z,18.47
2023-01-19T11:58:06.318Z,21.13
2023-01-19T12:00:38.174Z,18.93
2023-01-19T12:03:11.887Z,22.50
2023-01-19T12:05:42.141Z,18.50
2023-01-19T12:08:15.618Z,17.80
2023-01-19T12:10:46.195Z,18.20
2023-01-19T12:13:22.123Z,19.20
2023-01-19T12:15:52.520Z,17.80
2023-01-19T12:18:23.544Z,19.27
2023-01-19T12:20:52.933Z,26.50
2023-01-19T12:23:26.368Z,20.67
2023-01-19T12:26:02.734Z,21.40
2023-01-19T12:28:31.828Z,22.77
2023-01-19T12:31:01.629Z,18.13
2023-01-19T12:33:39.938Z,26.90
2023-01-19T12:36:11.667Z,19.93
2023-01-19T12:38:48.480Z,22.07
2023-01-19T12:41:40.379Z,19.93
2023-01-19T12:44:33.997Z,20.07
2023-01-19T12:47:06.263Z,23.87
2023-01-19T12:49:41.800Z,19.13
2023-01-19T12:52:21.563Z,16.17
2023-01-19T12:54:53.922Z,21.93
2023-01-19T12:57:24.296Z,17.10
2023-01-19T12:59:58.039Z,23.13
2023-01-19T13:02:41.958Z,15.97
2023-01-19T13:05:19.829Z,16.57
2023-01-19T13:08:19.262Z,17.20
2023-01-19T13:11:17.488Z,20.37
2023-01-19T13:13:57.303Z,17.30
2023-01-19T13:17:00.231Z,15.60
2023-01-19T13:19:42.743Z,16.47
2023-01-19T13:22:44.017Z,23.30
2023-01-19T13:25:14.687Z,20.33
2023-01-19T13:27:42.529Z,15.20
2023-01-19T13:30:15.482Z,17.43
2023-01-19T13:32:43.242Z,18.87
2023-01-19T13:35:14.986Z,15.77
2023-01-19T13:37:44.445Z,15.10
2023-01-19T13:40:19.671Z,13.40
2023-01-19T13:42:47.948Z,16.60
2023-01-19T13:45:22.371Z,19.37
2023-01-19T13:47:50.144Z,24.47
2023-01-19T13:50:20.810Z,24.33
2023-01-19T13:52:48.966Z,15.10
2023-01-19T13:55:19.089Z,19.90
2023-01-19T13:57:48.525Z,18.63
2023-01-19T14:00:20.878Z,15.80
2023-01-19T14:02:55.065Z,17.13
2023-01-19T14:05:24.731Z,20.93
2023-01-19T14:08:15.191Z,15.73
2023-01-19T14:10:45.772Z,14.30
2023-01-19T14:13:16.266Z,17.00
2023-01-19T14:15:44.432Z,15.20
2023-01-19T14:18:26.757Z,15.70
2023-01-19T14:20:56.211Z,18.50
2023-01-19T14:23:43.823Z,16.70
2023-01-19T14:26:42.229Z,13.33
2023-01-19T14:29:34.280Z,15.07
2023-01-19T14:32:14.038Z,18.67
2023-01-19T14:34:43.206Z,15.60
2023-01-19T14:37:20.790Z,15.30
2023-01-19T14:39:49.811Z,14.60
2023-01-19T14:42:23.125Z,14.87
2023-01-19T14:44:52.377Z,18.50
2023-01-19T14:47:35.835Z,18.80
2023-01-19T14:50:08.431Z,17.50
2023-01-19T14:52:39.592Z,12.83
2023-01-19T14:55:10.080Z,18.73
2023-01-19T14:57:39.079Z,11.57
2023-01-19T15:00:17.347Z,14.63
2023-01-19T15:02:45.295Z,17.70
2023-01-19T15:05:13.468Z,15.17
2023-01-19T15:07:43.030Z,17.53
2023-01-19T15:10:16.407Z,14.27
2023-01-19T15:12:45.473Z,15.47
2023-01-19T15:15:17.736Z,18.53
2023-01-19T15:17:45.572Z,15.70
2023-01-19T15:20:16.912Z,13.37
2023-01-19T15:22:44.789Z,21.00
2023-01-19T15:25:15.109Z,15.73
2023-01-19T15:27:43.202Z,11.60
2023-01-19T15:30:17.135Z,13.70
2023-01-19T15:32:45.068Z,12.97
2023-01-19T15:35:14.739Z,17.13
2023-01-19T15:37:42.290Z,15.37
2023-01-19T15:40:10.723Z,17.53
2023-01-19T15:42:38.368Z,14.73
2023-01-19T15:45:36.585Z,20.80
2023-01-19T15:48:07.000Z,17.83
2023-01-19T15:50:34.999Z,23.27
2023-01-19T15:53:02.627Z,16.33
2023-01-19T15:55:30.274Z,20.40
2023-01-19T15:58:01.428Z,20.10
2023-01-19T16:00:29.689Z,17.43
2023-01-19T16:02:57.284Z,18.40
2023-01-19T16:05:41.595Z,16.30
2023-01-19T16:08:10.461Z,15.97
2023-01-19T16:10:37.969Z,19.13
2023-01-19T16:13:05.550Z,14.50
2023-01-19T16:15:35.222Z,14.57
2023-01-19T16:18:02.755Z,13.77
2023-01-19T16:20:32.416Z,10.80
2023-01-19T16:23:13.756Z,17.10
2023-01-19T16:25:42.227Z,13.90
2023-01-19T16:28:10.117Z,12.47
2023-01-19T16:30:37.643Z,14.87
2023-01-19T16:33:05.246Z,9.60
2023-01-19T16:35:34.069Z,15.20
2023-01-19T16:38:01.554Z,9.17
2023-01-19T16:40:29.071Z,16.27
2023-01-19T16:42:56.511Z,16.97
2023-01-19T16:45:23.993Z,16.53
2023-01-19T16:47:52.187Z,20.30
2023-01-19T16:50:20.216Z,15.80
2023-01-19T16:52:50.545Z,21.17
2023-01-19T16:55:18.503Z,13.73
2023-01-19T16:57:46.433Z,14.40
2023-01-19T17:00:15.978Z,16.87
2023-01-19T17:02:43.641Z,17.33
2023-01-19T17:05:11.457Z,11.10
2023-01-19T17:07:39.083Z,9.60
2023-01-19T17:10:10.057Z,17.03
2023-01-19T17:12:37.698Z,15.37
2023-01-19T17:15:06.123Z,8.73
2023-01-19T17:17:34.914Z,17.17
2023-01-19T17:20:03.771Z,19.23
2023-01-19T17:22:31.360Z,14.30
2023-01-19T17:24:59.496Z,10.27
2023-01-19T17:27:28.746Z,14.97
2023-01-19T17:29:56.266Z,12.73
2023-01-19T17:32:23.751Z,26.83
2023-01-19T17:34:51.241Z,11.60
2023-01-19T17:37:18.699Z,11.03
2023-01-19T17:39:46.098Z,13.43
2023-01-19T17:42:13.534Z,9.77
2023-01-19T17:44:42.825Z,12.47
2023-01-19T17:47:10.354Z,12.27
2023-01-19T17:49:38.045Z,12.20
2023-01-19T17:52:05.951Z,14.13
2023-01-19T17:54:33.834Z,14.70
2023-01-19T17:57:01.438Z,10.83
2023-01-19T17:59:29.364Z,12.20
2023-01-19T18:01:58.219Z,17.33
2023-01-19T18:04:25.793Z,19.03
2023-01-19T18:06:53.405Z,9.30
2023-01-19T18:09:22.926Z,8.73
2023-01-19T18:11:50.454Z,15.17
2023-01-19T18:14:18.098Z,10.40
2023-01-19T18:16:45.783Z,16.03
2023-01-19T18:19:14.766Z,12.60
2023-01-19T18:21:42.295Z,15.50
2023-01-19T18:24:09.924Z,13.87
2023-01-19T18:26:37.927Z,10.77
2023-01-19T18:29:05.506Z,9.93
2023-01-19T18:31:33.305Z,12.40
2023-01-19T18:34:00.939Z,9.57
2023-01-19T18:36:31.933Z,8.10
2023-01-19T18:38:59.557Z,7.03
2023-01-19T18:41:29.000Z,10.00
2023-01-19T18:43:58.179Z,7.13
2023-01-19T18:46:25.992Z,9.27
2023-01-19T18:48:54.127Z,22.70
2023-01-19T18:51:21.703Z,10.50
2023-01-19T18:53:51.007Z,10.60
2023-01-19T18:56:18.640Z,12.77
2023-01-19T18:58:46.629Z,9.47
2023-01-19T19:01:21.566Z,12.60
2023-01-19T19:03:49.323Z,10.57
2023-01-19T19:06:18.969Z,5.50
2023-01-19T19:08:46.675Z,9.57
2023-01-19T19:11:15.627Z,9.37
2023-01-19T19:13:43.750Z,5.33
2023-01-19T19:16:12.865Z,7.03
2023-01-19T19:18:40.989Z,7.27
2023-01-19T19:21:09.823Z,11.00
2023-01-19T19:23:38.281Z,7.17
2023-01-19T19:26:07.321Z,8.83
2023-01-19T19:28:37.610Z,7.30
2023-01-19T19:31:07.087Z,12.20
2023-01-19T19:33:35.161Z,11.60
2023-01-19T19:36:03.382Z,14.67
2023-01-19T19:38:31.443Z,11.27
2023-01-19T19:41:00.405Z,10.63
2023-01-19T19:43:28.906Z,7.93
2023-01-19T19:46:02.704Z,11.57
2023-01-19T19:48:30.950Z,6.77
2023-01-19T19:51:17.164Z,20.33
2023-01-19T19:53:45.607Z,6.80
2023-01-19T19:56:13.958Z,12.00
2023-01-19T19:58:42.863Z,10.83
2023-01-19T20:01:13.518Z,8.43
2023-01-19T20:03:41.717Z,12.60
2023-01-19T20:06:11.643Z,9.63
2023-01-19T20:08:39.436Z,12.73
2023-01-19T20:11:08.981Z,7.83
2023-01-19T20:13:38.449Z,4.90
2023-01-19T20:16:10.800Z,5.53
2023-01-19T20:18:40.715Z,8.27
2023-01-19T20:21:13.266Z,4.80
2023-01-19T20:23:41.332Z,11.63
2023-01-19T20:26:10.245Z,9.47
2023-01-19T20:28:38.804Z,10.27
2023-01-19T20:31:11.088Z,5.37
2023-01-19T20:33:40.225Z,7.90
2023-01-19T20:36:08.121Z,11.93
2023-01-19T20:38:35.972Z,11.30
2023-01-19T20:41:04.065Z,17.50
2023-01-19T20:43:31.941Z,10.07
2023-01-19T20:45:59.936Z,7.53
2023-01-19T20:48:27.822Z,6.63
2023-01-19T20:51:00.813Z,9.87
2023-01-19T20:53:29.183Z,7.97
2023-01-19T20:55:56.823Z,12.23
2023-01-19T20:58:24.891Z,9.67
2023-01-19T21:00:52.639Z,10.80
2023-01-19T21:03:20.253Z,15.10
2023-01-19T21:05:48.728Z,14.13
2023-01-19T21:08:18.241Z,14.63
2023-01-19T21:10:46.095Z,18.80
2023-01-19T21:13:13.674Z,12.63
2023-01-19T21:15:41.301Z,11.80
2023-01-19T21:18:08.926Z,10.60
2023-01-19T21:20:36.494Z,10.87
2023-01-19T21:23:04.213Z,10.43
2023-01-19T21:25:34.540Z,12.40
2023-01-19T21:28:02.070Z,10.20
2023-01-19T21:30:29.769Z,21.17
2023-01-19T21:32:57.525Z,15.40
2023-01-19T21:35:25.117Z,9.67
2023-01-19T21:37:52.698Z,13.77
2023-01-19T21:40:20.262Z,13.80
2023-01-19T21:42:49.161Z,15.00
2023-01-19T21:45:16.854Z,11.40
2023-01-19T21:47:44.518Z,9.23
2023-01-19T21:50:12.136Z,9.63
2023-01-19T21:52:40.065Z,9.47
2023-01-19T21:55:08.632Z,7.40
2023-01-19T21:57:36.470Z,10.33
2023-01-19T22:00:06.928Z,6.67
2023-01-19T22:02:39.165Z,10.70
2023-01-19T22:05:07.751Z,13.80
2023-01-19T22:07:35.282Z,15.33
2023-01-19T22:10:03.028Z,10.17
2023-01-19T22:12:30.593Z,10.43
2023-01-19T22:14:58.226Z,7.67
2023-01-19T22:17:27.016Z,10.10
2023-01-19T22:19:54.527Z,6.83
2023-01-19T22:22:22.008Z,8.53
2023-01-19T22:24:52.163Z,10.87
2023-01-19T22:27:20.004Z,5.00
2023-01-19T22:29:47.996Z,8.50
2023-01-19T22:32:15.562Z,8.37
2023-01-19T22:34:44.419Z,7.67
2023-01-19T22:37:12.164Z,11.30
2023-01-19T22:39:39.934Z,13.70
2023-01-19T22:42:07.696Z,8.70
2023-01-19T22:44:35.409Z,10.40
2023-01-19T22:47:03.247Z,9.50
2023-01-19T22:49:30.808Z,6.70
2023-01-19T22:51:59.787Z,16.97
2023-01-19T22:54:30.078Z,14.57
2023-01-19T22:56:57.672Z,11.27
2023-01-19T22:59:25.189Z,7.00
2023-01-19T23:01:52.884Z,13.07
2023-01-19T23:04:20.825Z,10.93
2023-01-19T23:06:50.555Z,14.27
2023-01-19T23:09:20.294Z,7.90
2023-01-19T23:11:50.633Z,17.60
2023-01-19T23:14:20.299Z,6.90
2023-01-19T23:16:47.928Z,7.27
2023-01-19T23:19:17.037Z,8.60
2023-01-19T23:21:45.190Z,10.03
2023-01-19T23:24:12.867Z,9.70
2023-01-19T23:26:41.795Z,6.33
2023-01-19T23:29:11.454Z,12.47
2023-01-19T23:31:40.680Z,11.07
2023-01-19T23:34:10.084Z,17.73
2023-01-19T23:36:39.057Z,7.70
2023-01-19T23:39:09.836Z,5.60
2023-01-19T23:41:37.643Z,7.40
2023-01-19T23:44:06.790Z,9.83
2023-01-19T23:46:34.430Z,15.20
2023-01-19T23:49:02.291Z,11.57
2023-01-19T23:51:31.225Z,13.93
2023-01-19T23:53:59.608Z,8.40
2023-01-19T23:56:29.253Z,9.77
2023-01-19T23:58:58.449Z,12.90
